This is the latest recevied weather packets stored in our database for station/object W4EDL-13. If no packets are shown the sender has not sent any weather packets the latest 10 day(s).
| Time | Temp. | Humidity | Pressure | Rain* | Wind** | Luminosity | Snow |
|---|---|---|---|---|---|---|---|
| 1778172124 | 35° C | 45% | 1005.6 hPa | - | - | - | - |
| 1778172122 | 35° C | 45% | 1005.6 hPa | - | - | - | - |
| 1778171523 | 35° C | 42% | 1005.9 hPa | - | - | - | - |
| 1778171521 | 35° C | 42% | 1005.9 hPa | - | - | - | - |
| 1778170923 | 34.44° C | 45% | 1005.9 hPa | - | - | - | - |
| 1778170921 | 34.44° C | 45% | 1005.9 hPa | - | - | - | - |
| 1778170322 | 33.33° C | 47% | 1006.3 hPa | - | - | - | - |
| 1778170320 | 33.33° C | 47% | 1006.3 hPa | - | - | - | - |
| 1778169722 | 34.44° C | 47% | 1006.3 hPa | - | - | - | - |
| 1778169720 | 34.44° C | 47% | 1006.3 hPa | - | - | - | - |
| 1778169121 | 33.33° C | 48% | 1006.3 hPa | - | - | - | - |
| 1778169119 | 33.33° C | 48% | 1006.3 hPa | - | - | - | - |
| 1778168521 | 33.33° C | 48% | 1006.3 hPa | - | - | - | - |
| 1778168518 | 33.33° C | 48% | 1006.3 hPa | - | - | - | - |
| 1778167920 | 34.44° C | 48% | 1006.6 hPa | - | - | - | - |
| 1778167918 | 34.44° C | 48% | 1006.6 hPa | - | - | - | - |
| 1778167320 | 32.22° C | 51% | 1006.6 hPa | - | - | - | - |
| 1778167317 | 32.22° C | 51% | 1006.6 hPa | - | - | - | - |
| 1778166719 | 32.22° C | 50% | 1006.6 hPa | - | - | - | - |
| 1778166716 | 32.22° C | 50% | 1006.6 hPa | - | - | - | - |
| 1778166119 | 32.78° C | 52% | 1006.6 hPa | - | - | - | - |
| 1778166115 | 32.78° C | 52% | 1006.6 hPa | - | - | - | - |
| 1778165518 | 31.11° C | 58% | 1007.3 hPa | - | - | - | - |
| 1778165514 | 31.11° C | 58% | 1007.3 hPa | - | - | - | - |
| 1778164918 | 31.67° C | 58% | 1006.6 hPa | - | - | - | - |
* Rain since midnight (hover to see other rain measurements)
** Current wind speed in m/s (hover to see current wind gust speed)